Time;durP1;ratioP1;P1;durP2;ratioP2;P2;SDS_P1;SDS_P2;PMS_P1;PMS_P2;Temp;Humidity;BMP_temperature;BMP_pressure;BME280_temperature;BME280_humidity;BME280_pressure;Samples;Min_cycle;Max_cycle;Signal;HPM_P1;HPM_P2
2021/12/08 00:01:34;;;;;;;;;;;;;;;0.67;92.01;99846.31;1696931;82;20180;-65
2021/12/08 00:04:04;;;;;;;;;;;;;;;0.67;92.11;99848.16;1736516;82;20181;-67
2021/12/08 00:06:32;;;;;;;;;;;;;;;0.67;92.18;99849.02;1703623;84;20164;-63
2021/12/08 00:09:16;;;;;;;;;;;;;;;0.71;92.25;99860.34;1719774;82;20225;-62
2021/12/08 00:14:21;;;;;;;;;;;;;;;0.70;92.12;99862.20;1699064;84;20461;-63
2021/12/08 00:16:50;;;;;;;;;;;;;;;0.69;92.06;99863.20;1713173;82;20191;-64
2021/12/08 00:19:19;;;;;;;;;;;;;;;0.71;92.12;99867.94;1711987;82;20246;-62
2021/12/08 00:21:48;;;;;;;;;;;;;;;0.66;91.93;99868.03;1724201;83;20269;-65
2021/12/08 00:24:17;;;;;;;;;;;;;;;0.60;91.93;99861.35;1705907;83;20480;-65
2021/12/08 00:26:46;;;;;;;;;;;;;;;0.57;91.94;99852.21;1703911;83;20200;-63
2021/12/08 00:29:14;;;;;;;;;;;;;;;0.58;92.03;99849.87;1686943;83;20155;-63
2021/12/08 00:31:46;;;;;;;;;;;;;;;0.59;92.05;99854.27;1716917;82;20202;-64
2021/12/08 00:34:14;;;;;;;;;;;;;;;0.60;92.10;99861.35;1685699;82;20515;-63
2021/12/08 00:36:46;;;;;;;;;;;;;;;0.60;92.08;99855.95;1713987;82;20176;-65
2021/12/08 00:39:13;;;;;;;;;;;;;;;0.60;92.04;99858.16;1708374;82;20193;-64
2021/12/08 00:41:41;;;;;;;;;;;;;;;0.58;91.92;99862.00;1727875;82;20221;-63
2021/12/08 00:44:11;;;;;;;;;;;;;;;0.54;91.80;99856.05;1706349;82;20303;-63
2021/12/08 00:46:39;;;;;;;;;;;;;;;0.55;91.88;99854.20;1679844;83;20202;-64
2021/12/08 00:49:08;;;;;;;;;;;;;;;0.56;91.96;99850.52;1717583;82;20553;-64
2021/12/08 00:51:36;;;;;;;;;;;;;;;0.59;91.99;99856.95;1708302;82;20204;-63
2021/12/08 00:54:04;;;;;;;;;;;;;;;0.61;92.06;99844.18;1693038;83;20541;-62
2021/12/08 00:56:33;;;;;;;;;;;;;;;0.59;91.96;99862.34;1709442;82;20179;-63
2021/12/08 00:59:03;;;;;;;;;;;;;;;0.56;91.81;99862.14;1724149;82;20518;-65
2021/12/08 01:01:31;;;;;;;;;;;;;;;0.53;91.71;99860.23;1676149;82;20224;-64
2021/12/08 01:04:00;;;;;;;;;;;;;;;0.52;91.73;99860.73;1693977;83;20532;-63
2021/12/08 01:06:30;;;;;;;;;;;;;;;0.54;91.70;99863.28;1708257;84;20198;-65
2021/12/08 01:08:58;;;;;;;;;;;;;;;0.54;91.79;99868.67;1690332;84;20529;-64
2021/12/08 01:11:27;;;;;;;;;;;;;;;0.56;91.85;99858.10;1706451;84;20198;-63
2021/12/08 01:13:56;;;;;;;;;;;;;;;0.57;91.85;99858.95;1704909;84;20215;-63
2021/12/08 01:16:25;;;;;;;;;;;;;;;0.61;91.84;99853.61;1704653;83;20255;-63
2021/12/08 01:18:53;;;;;;;;;;;;;;;0.57;91.64;99850.37;1703585;84;20216;-64
2021/12/08 01:21:24;;;;;;;;;;;;;;;0.57;91.65;99852.21;1694833;84;20184;-64
2021/12/08 01:23:52;;;;;;;;;;;;;;;0.58;91.74;99860.65;1701200;84;20212;-64
2021/12/08 01:26:21;;;;;;;;;;;;;;;0.61;91.82;99856.31;1703636;83;20222;-63
2021/12/08 01:28:51;;;;;;;;;;;;;;;0.60;91.69;99854.11;1703624;83;20206;-63
2021/12/08 01:31:19;;;;;;;;;;;;;;;0.55;91.43;99856.41;1706123;84;20249;-65
2021/12/08 01:33:48;;;;;;;;;;;;;;;0.54;91.52;99853.36;1707338;83;20193;-66
2021/12/08 01:36:16;;;;;;;;;;;;;;;0.55;91.51;99850.16;1708315;83;20244;-64
2021/12/08 01:38:45;;;;;;;;;;;;;;;0.51;91.53;99850.11;1703640;84;20461;-64
2021/12/08 01:41:15;;;;;;;;;;;;;;;0.51;91.57;99844.72;1703521;84;20190;-64
2021/12/08 01:45:56;;;;;;;;;;;;;;;0.48;91.57;99843.16;1703586;84;20445;-64
2021/12/08 01:46:15;;;;;;;;;;;;;;;0.50;91.60;99845.71;1707278;84;20150;-64
2021/12/08 01:48:45;;;;;;;;;;;;;;;0.51;91.62;99845.56;1707007;83;20221;-63
2021/12/08 01:51:17;;;;;;;;;;;;;;;0.54;91.70;99835.84;1708534;84;20208;-65
2021/12/08 01:53:48;;;;;;;;;;;;;;;0.56;91.63;99841.08;1708179;84;20559;-65
2021/12/08 01:56:18;;;;;;;;;;;;;;;0.55;91.56;99842.08;1708158;84;20181;-64
2021/12/08 01:58:47;;;;;;;;;;;;;;;0.53;91.66;99851.66;1708379;84;20234;-65
2021/12/08 02:01:16;;;;;;;;;;;;;;;0.54;91.62;99841.73;1705224;84;20143;-65
2021/12/08 02:03:47;;;;;;;;;;;;;;;0.53;91.63;99840.02;1697635;82;20228;-64
2021/12/08 02:06:17;;;;;;;;;;;;;;;0.54;91.59;99844.42;1739902;82;20537;-64
2021/12/08 02:08:47;;;;;;;;;;;;;;;0.54;91.59;99834.98;1740605;82;20237;-65
2021/12/08 02:11:16;;;;;;;;;;;;;;;0.53;91.55;99830.59;1727766;82;20232;-64
2021/12/08 02:13:44;;;;;;;;;;;;;;;0.51;91.60;99829.89;1723669;82;20473;-64
2021/12/08 02:16:14;;;;;;;;;;;;;;;0.53;91.71;99823.86;1744551;82;20523;-65
2021/12/08 02:18:45;;;;;;;;;;;;;;;0.55;91.80;99817.81;1744419;82;20150;-64
2021/12/08 02:21:22;;;;;;;;;;;;;;;0.58;91.74;99831.00;1731666;82;20153;-65
2021/12/08 02:23:50;;;;;;;;;;;;;;;0.55;91.60;99817.81;1705653;82;20529;-63
2021/12/08 02:26:19;;;;;;;;;;;;;;;0.53;91.67;99823.36;1723498;83;20514;-64
2021/12/08 02:28:49;;;;;;;;;;;;;;;0.51;91.70;99817.77;1710112;82;20196;-63
2021/12/08 02:31:27;;;;;;;;;;;;;;;0.50;91.73;99824.15;1736494;82;20158;-64
2021/12/08 02:47:54;;;;;;;;;;;;;;;0.53;91.80;99817.12;1701525;82;20456;-63
2021/12/08 02:50:26;;;;;;;;;;;;;;;0.52;91.85;99825.70;1692007;83;20544;-64
2021/12/08 02:52:54;;;;;;;;;;;;;;;0.55;91.95;99816.47;1703816;83;20222;-63
2021/12/08 02:55:23;;;;;;;;;;;;;;;0.57;91.92;99828.80;1711243;83;20498;-62
2021/12/08 02:57:52;;;;;;;;;;;;;;;0.56;91.83;99821.72;1743481;82;20214;-64
2021/12/08 03:00:24;;;;;;;;;;;;;;;0.54;91.88;99825.05;1730355;82;20181;-64
2021/12/08 03:02:55;;;;;;;;;;;;;;;0.55;91.97;99831.30;1710537;83;20140;-63
2021/12/08 03:05:24;;;;;;;;;;;;;;;0.56;91.97;99820.86;1714032;82;20218;-64
2021/12/08 03:07:53;;;;;;;;;;;;;;;0.55;91.86;99823.21;1735502;82;20487;-64
2021/12/08 03:10:24;;;;;;;;;;;;;;;0.54;91.88;99823.70;1720156;82;20472;-63
2021/12/08 03:12:54;;;;;;;;;;;;;;;0.53;91.84;99823.86;1707153;82;20202;-65
2021/12/08 03:15:23;;;;;;;;;;;;;;;0.49;91.86;99822.45;1708844;82;20523;-63
2021/12/08 03:17:51;;;;;;;;;;;;;;;0.46;91.90;99818.70;1713245;82;20165;-63
2021/12/08 03:20:26;;;;;;;;;;;;;;;0.46;92.01;99831.68;1713524;82;20156;-63
2021/12/08 03:22:53;;;;;;;;;;;;;;;0.48;92.06;99824.80;1725587;82;20282;-63
2021/12/08 03:25:23;;;;;;;;;;;;;;;0.48;92.04;99822.10;1708915;82;20512;-64
2021/12/08 03:28:04;;;;;;;;;;;;;;;0.52;92.16;99818.97;1738780;82;20297;-63
2021/12/08 03:30:29;;;;;;;;;;;;;;;0.55;92.20;99811.93;1728222;82;20457;-62
2021/12/08 03:32:56;;;;;;;;;;;;;;;0.54;92.13;99812.92;1706372;82;20299;-63
2021/12/08 03:35:23;;;;;;;;;;;;;;;0.50;92.00;99812.02;1720540;82;20525;-63
2021/12/08 03:37:51;;;;;;;;;;;;;;;0.47;92.00;99821.75;1726561;82;20198;-63
2021/12/08 03:40:22;;;;;;;;;;;;;;;0.46;92.03;99816.01;1731373;82;20210;-62
2021/12/08 03:42:53;;;;;;;;;;;;;;;0.47;92.12;99811.82;1723686;82;20176;-62
2021/12/08 03:45:30;;;;;;;;;;;;;;;0.52;92.24;99818.11;1721109;82;20240;-63
2021/12/08 03:48:03;;;;;;;;;;;;;;;0.53;92.30;99817.12;1712813;82;20591;-63
2021/12/08 03:50:34;;;;;;;;;;;;;;;0.55;92.36;99815.12;1728620;82;20185;-63
2021/12/08 03:53:02;;;;;;;;;;;;;;;0.50;92.11;99816.06;1711426;82;20274;-64
2021/12/08 03:55:32;;;;;;;;;;;;;;;0.49;92.11;99814.37;1715547;82;20179;-63
2021/12/08 03:58:01;;;;;;;;;;;;;;;0.49;92.15;99814.37;1714656;82;20304;-62
2021/12/08 04:00:32;;;;;;;;;;;;;;;0.48;92.10;99808.63;1723554;82;20151;-63
2021/12/08 04:03:02;;;;;;;;;;;;;;;0.47;92.10;99811.82;1725534;82;20245;-64
2021/12/08 04:05:45;;;;;;;;;;;;;;;0.46;92.14;99802.53;1727013;82;20202;-63
2021/12/08 04:08:05;;;;;;;;;;;;;;;0.46;92.16;99810.13;1714403;82;20158;-63
2021/12/08 04:10:32;;;;;;;;;;;;;;;0.45;92.10;99814.31;1721782;82;20199;-62
2021/12/08 04:13:01;;;;;;;;;;;;;;;0.45;92.16;99807.58;1711699;82;20200;-63
2021/12/08 04:15:29;;;;;;;;;;;;;;;0.45;92.09;99819.70;1705689;82;20205;-64
2021/12/08 04:17:58;;;;;;;;;;;;;;;0.47;92.14;99816.36;1715236;82;20288;-66
2021/12/08 04:20:33;;;;;;;;;;;;;;;0.48;92.19;99816.21;1726887;82;20155;-64
2021/12/08 04:23:01;;;;;;;;;;;;;;;0.51;92.28;99817.27;1731670;82;20202;-63
2021/12/08 04:25:34;;;;;;;;;;;;;;;0.55;92.26;99817.81;1711940;82;20257;-63
2021/12/08 04:28:06;;;;;;;;;;;;;;;0.55;92.21;99821.36;1738773;82;20215;-68
2021/12/08 04:30:37;;;;;;;;;;;;;;;0.56;92.18;99816.82;1730715;82;20444;-65
2021/12/08 04:33:07;;;;;;;;;;;;;;;0.57;92.24;99818.02;1738896;82;20499;-64
2021/12/08 04:35:35;;;;;;;;;;;;;;;0.59;92.25;99812.48;1739025;82;20270;-64
2021/12/08 04:38:07;;;;;;;;;;;;;;;0.56;92.17;99810.93;1711684;82;20213;-65
2021/12/08 04:40:54;;;;;;;;;;;;;;;0.53;92.17;99812.58;1715972;82;20154;-63
2021/12/08 04:43:20;;;;;;;;;;;;;;;0.50;92.22;99810.17;1698934;82;20466;-65
2021/12/08 04:45:57;;;;;;;;;;;;;;;0.53;92.29;99818.47;1711847;82;20220;-64
2021/12/08 04:48:31;;;;;;;;;;;;;;;0.52;92.30;99816.77;1737105;82;20269;-63
2021/12/08 04:53:47;;;;;;;;;;;;;;;0.54;92.41;99817.47;1661340;83;20193;-65
2021/12/08 05:04:41;;;;;;;;;;;;;;;0.55;92.36;99831.30;1712357;82;20153;-65
2021/12/08 05:09:51;;;;;;;;;;;;;;;0.55;92.44;99833.98;1720774;82;20634;-65
2021/12/08 05:12:23;;;;;;;;;;;;;;;0.57;92.53;99832.84;1719386;82;20520;-65
2021/12/08 05:14:55;;;;;;;;;;;;;;;0.58;92.54;99839.94;1744231;82;20170;-64
2021/12/08 05:17:26;;;;;;;;;;;;;;;0.57;92.40;99834.69;1704765;82;20148;-63
2021/12/08 05:19:56;;;;;;;;;;;;;;;0.54;92.25;99826.41;1714823;82;20267;-64
2021/12/08 05:22:31;;;;;;;;;;;;;;;0.55;92.32;99835.34;1711534;82;20235;-63
2021/12/08 05:25:00;;;;;;;;;;;;;;;0.55;92.43;99830.80;1724667;82;20526;-65
2021/12/08 05:27:40;;;;;;;;;;;;;;;0.56;92.43;99851.86;1704313;82;20228;-64
2021/12/08 05:30:15;;;;;;;;;;;;;;;0.58;92.36;99827.80;1725531;83;20179;-64
2021/12/08 05:32:43;;;;;;;;;;;;;;;0.61;92.44;99833.40;1724688;82;20264;-64
2021/12/08 05:35:13;;;;;;;;;;;;;;;0.66;92.48;99835.19;1735383;82;20154;-63
2021/12/08 05:37:42;;;;;;;;;;;;;;;0.63;92.35;99834.09;1737420;82;20474;-66
2021/12/08 05:40:14;;;;;;;;;;;;;;;0.60;92.29;99840.63;1711007;82;20212;-63
2021/12/08 05:42:42;;;;;;;;;;;;;;;0.58;92.25;99844.48;1704144;82;20215;-65
2021/12/08 05:45:13;;;;;;;;;;;;;;;0.56;92.21;99833.84;1722954;82;20206;-64
2021/12/08 05:47:42;;;;;;;;;;;;;;;0.57;92.22;99832.00;1721836;82;20174;-66
2021/12/08 05:50:11;;;;;;;;;;;;;;;0.59;92.27;99836.73;1744157;82;20182;-66
2021/12/08 05:52:39;;;;;;;;;;;;;;;0.62;92.34;99835.09;1734788;82;20559;-64
2021/12/08 05:55:09;;;;;;;;;;;;;;;0.64;92.43;99840.69;1731235;82;20247;-66
2021/12/08 05:57:40;;;;;;;;;;;;;;;0.66;92.26;99848.66;1715510;82;20235;-68
2021/12/08 06:00:12;;;;;;;;;;;;;;;0.64;92.14;99845.23;1744252;82;20189;-65
2021/12/08 06:02:42;;;;;;;;;;;;;;;0.63;92.07;99843.53;1743625;82;20259;-66
2021/12/08 06:05:11;;;;;;;;;;;;;;;0.61;91.96;99846.88;1713004;82;20242;-65
2021/12/08 06:07:40;;;;;;;;;;;;;;;0.66;92.14;99844.62;1708999;82;20583;-66
2021/12/08 06:10:13;;;;;;;;;;;;;;;0.70;92.23;99835.23;1701187;82;20191;-65
2021/12/08 06:12:43;;;;;;;;;;;;;;;0.71;92.23;99840.98;1714940;82;20207;-65
2021/12/08 06:15:11;;;;;;;;;;;;;;;0.69;92.06;99837.58;1744258;82;20158;-64
2021/12/08 06:17:40;;;;;;;;;;;;;;;0.71;92.12;99836.09;1734907;82;20223;-65
2021/12/08 06:20:11;;;;;;;;;;;;;;;0.71;92.10;99839.63;1733823;82;20467;-64
2021/12/08 06:22:40;;;;;;;;;;;;;;;0.73;92.14;99835.44;1716191;82;20581;-65
2021/12/08 06:25:09;;;;;;;;;;;;;;;0.73;92.10;99840.83;1704040;82;20494;-64
2021/12/08 06:27:38;;;;;;;;;;;;;;;0.77;92.22;99839.03;1706545;82;20158;-66
2021/12/08 06:30:08;;;;;;;;;;;;;;;0.80;92.25;99842.78;1730374;82;20240;-65
2021/12/08 06:32:37;;;;;;;;;;;;;;;0.82;92.23;99846.67;1725385;82;20450;-64
2021/12/08 06:35:08;;;;;;;;;;;;;;;0.82;92.16;99850.72;1724948;82;20289;-65
2021/12/08 06:37:38;;;;;;;;;;;;;;;0.84;92.14;99852.77;1726037;82;20224;-66
2021/12/08 06:40:18;;;;;;;;;;;;;;;0.84;92.08;99850.92;1727042;82;20160;-66
2021/12/08 06:42:49;;;;;;;;;;;;;;;0.83;91.93;99845.18;1740261;82;20158;-65
2021/12/08 06:45:20;;;;;;;;;;;;;;;0.80;91.81;99845.48;1738319;82;20178;-63
2021/12/08 06:47:49;;;;;;;;;;;;;;;0.77;91.74;99845.77;1722679;82;20508;-63
2021/12/08 06:50:21;;;;;;;;;;;;;;;0.76;91.74;99834.64;1721135;82;20273;-64
2021/12/08 06:52:52;;;;;;;;;;;;;;;0.76;91.80;99837.84;1718972;82;20545;-64
2021/12/08 06:55:24;;;;;;;;;;;;;;;0.76;91.78;99840.03;1726235;82;20189;-64
2021/12/08 06:57:56;;;;;;;;;;;;;;;0.77;91.79;99834.14;1718968;82;20147;-65
2021/12/08 07:03:31;;;;;;;;;;;;;;;0.74;91.85;99831.25;1689491;82;20158;-65
2021/12/08 07:06:05;;;;;;;;;;;;;;;0.75;91.88;99832.94;1714363;83;20156;-65
2021/12/08 07:08:24;;;;;;;;;;;;;;;0.80;92.01;99825.25;1707229;83;20197;-65
2021/12/08 07:10:56;;;;;;;;;;;;;;;0.82;91.84;99833.20;1712965;84;20220;-65
2021/12/08 07:13:28;;;;;;;;;;;;;;;0.82;91.93;99830.00;1703211;84;20285;-65
2021/12/08 07:16:08;;;;;;;;;;;;;;;0.83;91.88;99830.34;1705832;84;20272;-66
2021/12/08 07:18:43;;;;;;;;;;;;;;;0.80;91.90;99834.69;1710785;83;20168;-65
2021/12/08 07:21:12;;;;;;;;;;;;;;;0.80;91.89;99832.00;1710771;83;20353;-64
2021/12/08 07:23:44;;;;;;;;;;;;;;;0.78;91.92;99835.34;1710787;83;20196;-65
2021/12/08 07:26:17;;;;;;;;;;;;;;;0.81;91.90;99840.94;1689953;84;20219;-65
2021/12/08 07:28:46;;;;;;;;;;;;;;;0.80;91.91;99836.05;1710673;83;20172;-67
2021/12/08 07:31:22;;;;;;;;;;;;;;;0.81;91.88;99842.28;1690389;84;20221;-64
2021/12/08 07:33:50;;;;;;;;;;;;;;;0.81;91.86;99840.44;1710555;84;20216;-66
2021/12/08 07:36:18;;;;;;;;;;;;;;;0.82;91.92;99834.05;1710854;83;20232;-65
2021/12/08 07:38:50;;;;;;;;;;;;;;;0.81;91.87;99826.95;1710948;84;20176;-63
2021/12/08 07:41:22;;;;;;;;;;;;;;;0.80;91.79;99830.65;1711008;84;20470;-65
2021/12/08 07:43:54;;;;;;;;;;;;;;;0.81;91.87;99826.11;1710817;83;20237;-64
2021/12/08 07:46:36;;;;;;;;;;;;;;;0.84;91.97;99829.35;1691461;84;20570;-62
2021/12/08 07:49:07;;;;;;;;;;;;;;;0.86;91.99;99826.00;1716334;84;20144;-64
2021/12/08 07:51:48;;;;;;;;;;;;;;;0.84;91.87;99832.05;1714114;84;20284;-63
2021/12/08 07:54:17;;;;;;;;;;;;;;;0.84;91.98;99829.85;1710855;84;20176;-63
2021/12/08 07:56:48;;;;;;;;;;;;;;;0.80;91.90;99834.69;1704827;84;20164;-65
2021/12/08 07:59:18;;;;;;;;;;;;;;;0.84;92.07;99835.24;1710887;84;20541;-66
2021/12/08 08:01:50;;;;;;;;;;;;;;;0.85;92.08;99832.40;1710802;83;20192;-64
2021/12/08 08:04:21;;;;;;;;;;;;;;;0.85;92.05;99828.35;1710934;83;20585;-63
2021/12/08 08:06:53;;;;;;;;;;;;;;;0.86;92.08;99826.50;1721987;82;20662;-63
2021/12/08 08:09:27;;;;;;;;;;;;;;;0.86;92.09;99824.66;1700781;82;20181;-64
2021/12/08 08:12:00;;;;;;;;;;;;;;;0.88;92.17;99821.81;1725408;82;20198;-65
2021/12/08 08:14:39;;;;;;;;;;;;;;;0.90;92.23;99821.16;1719060;82;20237;-65
2021/12/08 08:17:10;;;;;;;;;;;;;;;0.91;92.28;99819.66;1689544;82;20190;-64
2021/12/08 08:19:44;;;;;;;;;;;;;;;0.91;92.25;99808.88;1732685;82;20185;-64
2021/12/08 08:22:12;;;;;;;;;;;;;;;0.93;92.22;99806.02;1739319;82;20189;-64
2021/12/08 08:24:40;;;;;;;;;;;;;;;0.93;92.19;99814.97;1723217;82;20506;-63
2021/12/08 08:27:09;;;;;;;;;;;;;;;0.87;92.03;99795.34;1711983;82;20222;-64
2021/12/08 08:29:38;;;;;;;;;;;;;;;0.85;92.08;99791.09;1696096;82;20477;-64
2021/12/08 08:32:19;;;;;;;;;;;;;;;0.83;92.06;99793.95;1695859;82;20202;-64
2021/12/08 08:34:45;;;;;;;;;;;;;;;0.83;92.07;99783.66;1692063;84;20521;-64
2021/12/08 08:37:13;;;;;;;;;;;;;;;0.84;92.16;99779.97;1687728;82;20210;-63
2021/12/08 08:39:45;;;;;;;;;;;;;;;0.86;92.25;99784.20;1712604;82;20457;-64
2021/12/08 08:42:20;;;;;;;;;;;;;;;0.88;92.33;99778.16;1726751;82;20158;-65
2021/12/08 08:45:06;;;;;;;;;;;;;;;0.90;92.37;99771.27;1731884;82;20266;-64
2021/12/08 08:47:48;;;;;;;;;;;;;;;0.90;92.42;99773.47;1712454;82;20166;-64
2021/12/08 08:50:27;;;;;;;;;;;;;;;0.89;92.34;99781.70;1595984;88;20201;-65
2021/12/08 08:52:59;;;;;;;;;;;;;;;0.85;92.31;99775.77;1621086;88;20191;-64
2021/12/08 08:55:38;;;;;;;;;;;;;;;0.84;92.26;99786.20;1587422;89;20481;-65
2021/12/08 08:58:08;;;;;;;;;;;;;;;0.84;92.33;99782.16;1595545;87;20224;-65
2021/12/08 09:00:43;;;;;;;;;;;;;;;0.83;92.31;99784.51;1607340;88;20245;-65
2021/12/08 09:03:15;;;;;;;;;;;;;;;0.84;92.40;99787.55;1584143;88;20541;-64
2021/12/08 09:05:52;;;;;;;;;;;;;;;0.87;92.48;99779.16;1577321;89;20200;-65
2021/12/08 09:08:22;;;;;;;;;;;;;;;0.87;92.47;99783.20;1581950;90;20172;-65
2021/12/08 09:11:00;;;;;;;;;;;;;;;0.83;91.95;99788.55;1586182;90;20205;-66
2021/12/08 09:13:31;;;;;;;;;;;;;;;0.78;91.94;99804.34;1564205;90;20215;-65
2021/12/08 09:16:08;;;;;;;;;;;;;;;0.75;92.04;99800.59;1690422;84;20497;-65
2021/12/08 09:18:51;;;;;;;;;;;;;;;0.73;92.04;99794.50;1680263;84;20254;-64
2021/12/08 09:21:38;;;;;;;;;;;;;;;0.71;92.00;99786.21;1664987;84;20548;-65
2021/12/08 09:24:12;;;;;;;;;;;;;;;0.70;92.02;99796.14;1683735;84;20273;-66
2021/12/08 09:26:45;;;;;;;;;;;;;;;0.71;92.12;99781.66;1681499;84;20599;-64
2021/12/08 09:29:17;;;;;;;;;;;;;;;0.75;92.19;99787.61;1707818;84;20349;-64
2021/12/08 09:31:56;;;;;;;;;;;;;;;0.78;92.30;99791.34;1688035;84;20194;-63
2021/12/08 09:34:33;;;;;;;;;;;;;;;0.77;92.35;99793.20;1658557;84;20208;-62
2021/12/08 09:37:05;;;;;;;;;;;;;;;0.82;92.48;99782.81;1680208;84;20187;-67
2021/12/08 09:39:39;;;;;;;;;;;;;;;0.82;92.42;99785.51;1672954;84;20170;-66
2021/12/08 09:42:20;;;;;;;;;;;;;;;0.81;92.37;99781.61;1681726;84;20222;-64
2021/12/08 09:45:07;;;;;;;;;;;;;;;0.77;92.28;99782.41;1684938;84;20479;-66
2021/12/08 09:47:36;;;;;;;;;;;;;;;0.75;92.18;99772.28;1676664;84;20152;-66
2021/12/08 09:50:07;;;;;;;;;;;;;;;0.74;92.27;99777.33;1686725;84;20223;-65
2021/12/08 09:52:37;;;;;;;;;;;;;;;0.75;92.40;99770.93;1694584;84;20220;-66
2021/12/08 09:55:09;;;;;;;;;;;;;;;0.76;92.48;99782.06;1703163;84;20179;-65
2021/12/08 09:57:37;;;;;;;;;;;;;;;0.80;92.56;99776.72;1709943;84;20485;-66
2021/12/08 10:00:08;;;;;;;;;;;;;;;0.78;92.50;99776.02;1682703;84;20183;-65
2021/12/08 10:02:37;;;;;;;;;;;;;;;0.81;92.57;99785.66;1696623;84;20465;-65
2021/12/08 10:05:14;;;;;;;;;;;;;;;0.82;92.50;99781.96;1708864;83;20303;-65
2021/12/08 10:07:43;;;;;;;;;;;;;;;0.76;92.25;99784.77;1707884;82;20268;-65
2021/12/08 10:10:13;;;;;;;;;;;;;;;0.77;92.33;99791.00;1739034;82;20278;-66
2021/12/08 10:12:42;;;;;;;;;;;;;;;0.78;92.41;99781.91;1726748;82;20166;-66
2021/12/08 10:15:13;;;;;;;;;;;;;;;0.79;92.49;99773.67;1727912;81;20209;-66
2021/12/08 10:17:41;;;;;;;;;;;;;;;0.82;92.55;99765.28;1713691;82;20246;-65
2021/12/08 10:20:17;;;;;;;;;;;;;;;0.85;92.90;99769.03;1707443;82;20302;-65
2021/12/08 10:22:49;;;;;;;;;;;;;;;0.88;92.87;99769.22;1729793;82;20201;-66
2021/12/08 10:25:20;;;;;;;;;;;;;;;0.86;92.78;99766.67;1721158;82;20678;-65
2021/12/08 10:28:08;;;;;;;;;;;;;;;0.83;92.72;99761.59;1700217;82;20222;-65
2021/12/08 10:30:41;;;;;;;;;;;;;;;0.81;92.72;99755.50;1722756;82;20208;-66
2021/12/08 10:33:17;;;;;;;;;;;;;;;0.80;92.75;99755.15;1716922;82;20301;-66
2021/12/08 10:35:49;;;;;;;;;;;;;;;0.79;92.79;99751.26;1713087;82;20220;-67
2021/12/08 10:38:19;;;;;;;;;;;;;;;0.81;92.87;99749.26;1732148;82;20207;-65
2021/12/08 10:41:00;;;;;;;;;;;;;;;0.82;92.93;99750.45;1735343;82;20541;-66
2021/12/08 10:43:33;;;;;;;;;;;;;;;0.84;92.95;99746.26;1701317;82;20193;-66
2021/12/08 10:46:09;;;;;;;;;;;;;;;0.84;93.03;99740.36;1723725;82;20722;-65
2021/12/08 10:48:44;;;;;;;;;;;;;;;0.84;93.04;99736.82;1691719;82;20198;-65
2021/12/08 10:54:27;;;;;;;;;;;;;;;0.78;92.89;99731.53;1715416;82;20183;-66
2021/12/08 10:56:57;;;;;;;;;;;;;;;0.75;92.85;99726.94;1712678;82;20177;-65
2021/12/08 10:59:31;;;;;;;;;;;;;;;0.76;93.03;99728.14;1709759;83;20158;-65
2021/12/08 11:02:14;;;;;;;;;;;;;;;0.79;93.14;99724.30;1757646;79;20207;-65
2021/12/08 11:04:45;;;;;;;;;;;;;;;0.79;93.17;99716.20;1700177;81;20143;-64
2021/12/08 11:07:17;;;;;;;;;;;;;;;0.77;93.08;99714.16;1721788;83;20498;-65
2021/12/08 11:09:46;;;;;;;;;;;;;;;0.75;93.05;99719.70;1722710;83;20543;-64
2021/12/08 11:12:16;;;;;;;;;;;;;;;0.77;93.14;99716.86;1747795;82;20180;-65
2021/12/08 11:14:46;;;;;;;;;;;;;;;0.80;93.19;99724.64;1748414;82;20169;-66
2021/12/08 11:17:28;;;;;;;;;;;;;;;0.77;93.17;99715.01;1727186;82;20158;-64
2021/12/08 11:20:21;;;;;;;;;;;;;;;0.77;93.21;99715.51;1726543;82;20511;-64
2021/12/08 11:23:02;;;;;;;;;;;;;;;0.79;93.31;99721.59;1766734;79;20529;-64
2021/12/08 11:25:33;;;;;;;;;;;;;;;0.82;93.47;99715.41;1760951;80;20579;-66
2021/12/08 11:28:29;;;;;;;;;;;;;;;0.86;93.48;99707.86;1779618;79;20222;-65
2021/12/08 11:31:11;;;;;;;;;;;;;;;0.86;93.43;99712.75;1771937;80;20247;-65
2021/12/08 11:33:43;;;;;;;;;;;;;;;0.84;93.44;99709.85;1785529;80;20208;-65
2021/12/08 11:36:17;;;;;;;;;;;;;;;0.81;93.33;99717.75;1776902;80;20330;-65
2021/12/08 11:38:49;;;;;;;;;;;;;;;0.77;93.25;99699.33;1777253;79;20222;-65
2021/12/08 11:41:38;;;;;;;;;;;;;;;0.74;93.22;99695.09;1739263;81;20158;-66
2021/12/08 11:44:21;;;;;;;;;;;;;;;0.73;93.27;99700.14;1718903;82;20527;-63
2021/12/08 11:46:56;;;;;;;;;;;;;;;0.74;93.35;99701.83;1681427;84;20218;-64
2021/12/08 11:49:24;;;;;;;;;;;;;;;0.76;93.45;99692.24;1712112;82;20252;-64
2021/12/08 11:52:06;;;;;;;;;;;;;;;0.76;93.52;99688.20;1738296;82;20488;-64
2021/12/08 11:54:49;;;;;;;;;;;;;;;0.77;93.60;99689.39;1739933;82;20464;-65
2021/12/08 11:57:20;;;;;;;;;;;;;;;0.83;93.74;99684.73;1708860;82;20217;-65
2021/12/08 11:59:58;;;;;;;;;;;;;;;0.87;93.71;99680.73;1715556;81;20477;-64
2021/12/08 12:02:25;;;;;;;;;;;;;;;0.86;93.61;99676.84;1773491;79;20180;-65
2021/12/08 12:04:53;;;;;;;;;;;;;;;0.85;93.62;99679.19;1772223;80;20616;-66
2021/12/08 12:07:23;;;;;;;;;;;;;;;0.83;93.71;99683.89;1777598;79;20462;-66
2021/12/08 12:09:53;;;;;;;;;;;;;;;0.84;93.77;99688.28;1779628;79;20195;-65
2021/12/08 12:12:22;;;;;;;;;;;;;;;0.79;93.76;99684.70;1759586;79;20193;-65
2021/12/08 12:14:51;;;;;;;;;;;;;;;0.80;93.84;99683.70;1775406;80;20243;-65
2021/12/08 12:17:24;;;;;;;;;;;;;;;0.82;93.86;99685.73;1749644;80;20214;-74
2021/12/08 12:20:07;;;;;;;;;;;;;;;0.85;93.88;99689.48;1731801;82;20162;-65
2021/12/08 12:23:10;;;;;;;;;;;;;;;0.86;93.92;99690.33;1744825;82;20225;-66
2021/12/08 12:25:58;;;;;;;;;;;;;;;0.87;93.96;99691.52;1670906;84;20160;-67
2021/12/08 12:29:04;;;;;;;;;;;;;;;0.87;93.99;99691.52;1765247;79;20203;-68
2021/12/08 12:31:54;;;;;;;;;;;;;;;0.88;94.01;99699.11;1776242;79;20569;-65
2021/12/08 12:34:26;;;;;;;;;;;;;;;0.90;94.11;99695.26;1697335;83;20458;-65
2021/12/08 12:36:54;;;;;;;;;;;;;;;0.90;94.11;99691.72;1678811;83;20192;-66
2021/12/08 12:39:25;;;;;;;;;;;;;;;0.91;94.17;99699.65;1681466;83;20212;-64
2021/12/08 12:42:02;;;;;;;;;;;;;;;0.96;94.29;99705.94;1740227;82;20209;-65
2021/12/08 12:44:32;;;;;;;;;;;;;;;1.01;94.39;99702.27;1732481;82;20482;-65
2021/12/08 12:47:20;;;;;;;;;;;;;;;1.03;94.34;99702.13;1735840;82;20209;-67
2021/12/08 12:49:44;;;;;;;;;;;;;;;0.99;94.24;99706.98;1747972;82;20467;-64
2021/12/08 12:52:14;;;;;;;;;;;;;;;0.97;94.22;99712.17;1793328;79;20214;-66
2021/12/08 12:54:43;;;;;;;;;;;;;;;1.00;94.34;99717.27;1786038;79;20191;-66
2021/12/08 12:57:12;;;;;;;;;;;;;;;0.97;94.32;99715.72;1795944;79;20191;-69
2021/12/08 12:59:53;;;;;;;;;;;;;;;0.94;94.25;99719.58;1768613;79;20173;-68
2021/12/08 13:02:29;;;;;;;;;;;;;;;0.92;94.29;99718.87;1754236;80;20212;-66
2021/12/08 13:05:02;;;;;;;;;;;;;;;0.95;94.35;99721.77;1763059;81;20198;-67
2021/12/08 13:07:31;;;;;;;;;;;;;;;0.95;94.36;99725.31;1773236;80;20230;-65
2021/12/08 13:10:13;;;;;;;;;;;;;;;0.95;94.39;99737.45;1764075;80;20199;-66
2021/12/08 13:12:43;;;;;;;;;;;;;;;1.06;94.78;99743.63;1765868;81;20557;-65
2021/12/08 13:15:19;;;;;;;;;;;;;;;0.99;94.51;99736.64;1768522;81;20174;-66
2021/12/08 13:18:01;;;;;;;;;;;;;;;0.95;94.40;99748.23;1769053;81;20184;-65
2021/12/08 13:20:32;;;;;;;;;;;;;;;0.93;94.42;99725.97;1770343;81;20230;-65
2021/12/08 13:23:02;;;;;;;;;;;;;;;0.90;94.34;99730.31;1746033;81;20209;-65
2021/12/08 13:28:50;;;;;;;;;;;;;;;0.85;94.39;99746.11;1775682;81;20214;-65
2021/12/08 13:31:26;;;;;;;;;;;;;;;0.85;94.40;99741.21;1750676;81;20221;-65
2021/12/08 13:33:57;;;;;;;;;;;;;;;0.91;94.52;99742.80;1762009;81;20152;-67
2021/12/08 13:36:36;;;;;;;;;;;;;;;0.92;94.55;99740.95;1762651;81;20219;-65
2021/12/08 13:39:08;;;;;;;;;;;;;;;0.91;94.49;99742.80;1762628;81;20203;-65
2021/12/08 13:41:38;;;;;;;;;;;;;;;0.86;94.43;99753.20;1767186;81;20178;-65
2021/12/08 13:44:22;;;;;;;;;;;;;;;0.82;94.49;99753.16;1779337;81;20182;-65
2021/12/08 13:46:55;;;;;;;;;;;;;;;0.83;94.55;99759.39;1771962;80;20535;-66
2021/12/08 13:49:35;;;;;;;;;;;;;;;0.90;94.81;99755.94;1775373;81;20298;-66
2021/12/08 13:52:15;;;;;;;;;;;;;;;0.94;94.81;99763.22;1769931;80;20291;-66
2021/12/08 13:54:49;;;;;;;;;;;;;;;0.91;94.69;99762.17;1721901;83;20475;-66
2021/12/08 13:57:30;;;;;;;;;;;;;;;0.88;94.71;99766.03;1720481;83;20170;-65
2021/12/08 14:00:03;;;;;;;;;;;;;;;0.90;94.79;99759.98;1716105;84;20637;-67
2021/12/08 14:02:41;;;;;;;;;;;;;;;0.88;94.72;99758.44;1691143;83;20250;-66
2021/12/08 14:05:30;;;;;;;;;;;;;;;0.88;94.72;99762.48;1690058;83;20283;-65